Time,TemperatureF,DewpointF,PressureIn,WindDirection,WindDirectionDegrees,WindSpeedMPH,WindSpeedGustMPH,Humidity,HourlyPrecipIn,Conditions,Clouds,dailyrainin,SoftwareType,DateUTC
2013-03-09 00:03:00,40.0,29.0,-100.00,NNW,340,14.0,-999.0,64,0.00,,,0.00,,2013-03-09 05:03:00,
2013-03-09 00:12:00,40.0,29.0,-100.00,NNW,340,14.0,-999.0,64,0.00,,,0.00,,2013-03-09 05:12:00,
2013-03-09 00:53:00,38.0,27.0,-100.00,NNW,334,11.0,-999.0,65,0.00,,,0.00,,2013-03-09 05:53:00,
2013-03-09 01:02:00,38.0,27.0,-100.00,NNW,334,11.0,-999.0,65,0.00,,,0.00,,2013-03-09 06:02:00,
2013-03-09 01:11:00,38.0,27.0,-100.00,NNW,334,11.0,-999.0,65,0.00,,,0.00,,2013-03-09 06:11:00,
2013-03-09 01:52:00,37.0,26.0,-100.00,NNW,338,11.0,-999.0,64,0.00,,,0.00,,2013-03-09 06:52:00,
2013-03-09 02:01:00,37.0,26.0,-100.00,NNW,338,11.0,-999.0,64,0.00,,,0.00,,2013-03-09 07:01:00,
2013-03-09 02:11:00,37.0,26.0,-100.00,NNW,338,11.0,-999.0,64,0.00,,,0.00,,2013-03-09 07:11:00,
2013-03-09 02:52:00,38.0,27.0,-100.00,NNW,336,13.0,-999.0,63,0.00,,,0.00,,2013-03-09 07:52:00,
2013-03-09 03:01:00,38.0,27.0,-100.00,NNW,336,13.0,-999.0,63,0.00,,,0.00,,2013-03-09 08:01:00,
2013-03-09 03:11:00,38.0,27.0,-100.00,NNW,336,13.0,-999.0,63,0.00,,,0.00,,2013-03-09 08:11:00,
2013-03-09 03:52:00,37.0,26.0,-100.00,NNW,344,12.0,-999.0,63,0.00,,,0.00,,2013-03-09 08:52:00,
2013-03-09 04:02:00,37.0,26.0,-100.00,NNW,344,12.0,-999.0,63,0.00,,,0.00,,2013-03-09 09:02:00,
2013-03-09 04:12:00,37.0,26.0,-100.00,NNW,344,12.0,-999.0,63,0.00,,,0.00,,2013-03-09 09:12:00,
2013-03-09 04:52:00,37.0,25.0,-100.00,NNW,329,14.0,-999.0,61,0.00,,,0.00,,2013-03-09 09:52:00,
2013-03-09 05:01:00,37.0,25.0,-100.00,NNW,329,14.0,-999.0,61,0.00,,,0.00,,2013-03-09 10:01:00,
2013-03-09 05:11:00,37.0,25.0,-100.00,NNW,329,14.0,-999.0,61,0.00,,,0.00,,2013-03-09 10:11:00,
2013-03-09 05:52:00,37.0,25.0,-100.00,NNW,333,15.0,-999.0,62,0.00,,,0.00,,2013-03-09 10:52:00,
2013-03-09 06:01:00,37.0,25.0,-100.00,NNW,333,15.0,-999.0,62,0.00,,,0.00,,2013-03-09 11:01:00,
2013-03-09 06:11:00,37.0,25.0,-100.00,NNW,333,15.0,-999.0,62,0.00,,,0.00,,2013-03-09 11:11:00,
2013-03-09 06:52:00,36.0,23.0,-100.00,NNW,344,16.0,-999.0,60,0.00,,,0.00,,2013-03-09 11:52:00,
2013-03-09 07:02:00,36.0,23.0,-100.00,NNW,344,16.0,-999.0,60,0.00,,,0.00,,2013-03-09 12:02:00,
2013-03-09 07:12:00,36.0,23.0,-100.00,NNW,344,16.0,-999.0,60,0.00,,,0.00,,2013-03-09 12:12:00,
2013-03-09 07:52:00,37.0,24.0,-100.00,North,352,16.0,-999.0,60,0.00,,,0.00,,2013-03-09 12:52:00,
2013-03-09 08:02:00,37.0,24.0,-100.00,North,352,16.0,-999.0,60,0.00,,,0.00,,2013-03-09 13:02:00,
2013-03-09 08:11:00,37.0,24.0,-100.00,North,352,16.0,-999.0,60,0.00,,,0.00,,2013-03-09 13:11:00,
2013-03-09 08:52:00,39.0,23.0,-100.00,NNW,342,16.0,-999.0,52,0.00,,,0.00,,2013-03-09 13:52:00,
2013-03-09 09:01:00,39.0,23.0,-100.00,NNW,342,16.0,-999.0,52,0.00,,,0.00,,2013-03-09 14:01:00,
2013-03-09 09:11:00,39.0,23.0,-100.00,NNW,342,16.0,-999.0,52,0.00,,,0.00,,2013-03-09 14:11:00,
2013-03-09 09:52:00,42.0,24.0,-100.00,NNW,345,12.0,-999.0,48,0.00,,,0.00,,2013-03-09 14:52:00,
2013-03-09 10:02:00,42.0,24.0,-100.00,NNW,345,12.0,-999.0,48,0.00,,,0.00,,2013-03-09 15:02:00,
2013-03-09 10:12:00,42.0,24.0,-100.00,NNW,345,12.0,-999.0,48,0.00,,,0.00,,2013-03-09 15:12:00,
2013-03-09 10:52:00,44.0,19.0,-100.00,NNW,343,7.0,-999.0,37,0.00,,,0.00,,2013-03-09 15:52:00,
2013-03-09 11:01:00,44.0,19.0,-100.00,NNW,343,7.0,-999.0,37,0.00,,,0.00,,2013-03-09 16:01:00,
2013-03-09 11:12:00,44.0,19.0,-100.00,NNW,343,7.0,-999.0,37,0.00,,,0.00,,2013-03-09 16:12:00,
2013-03-09 11:52:00,49.0,20.0,-100.00,North,0,8.0,-999.0,31,0.00,,,0.00,,2013-03-09 16:52:00,
2013-03-09 12:01:00,49.0,20.0,-100.00,North,0,8.0,-999.0,31,0.00,,,0.00,,2013-03-09 17:01:00,
2013-03-09 12:11:00,49.0,20.0,-100.00,North,0,8.0,-999.0,31,0.00,,,0.00,,2013-03-09 17:11:00,
2013-03-09 12:52:00,51.0,24.0,-100.00,NW,304,10.0,-999.0,34,0.00,,,0.00,,2013-03-09 17:52:00,
2013-03-09 13:02:00,51.0,24.0,-100.00,NW,304,10.0,-999.0,34,0.00,,,0.00,,2013-03-09 18:02:00,
2013-03-09 13:11:00,51.0,24.0,-100.00,NW,304,10.0,-999.0,34,0.00,,,0.00,,2013-03-09 18:11:00,
2013-03-09 13:52:00,50.0,21.0,-100.00,ENE,66,6.0,-999.0,31,0.00,,,-99.99,,2013-03-09 18:52:00,
2013-03-09 14:02:00,50.0,21.0,-100.00,ENE,66,6.0,-999.0,31,0.00,,,-99.99,,2013-03-09 19:02:00,
2013-03-09 14:12:00,50.0,21.0,-100.00,ENE,66,6.0,-999.0,31,0.00,,,-99.99,,2013-03-09 19:12:00,
2013-03-09 14:52:00,50.0,23.0,-100.00,East,94,5.0,-999.0,34,0.00,,,-99.99,,2013-03-09 19:52:00,
2013-03-09 15:02:00,50.0,23.0,-100.00,East,94,5.0,-999.0,34,0.00,,,-99.99,,2013-03-09 20:02:00,
2013-03-09 15:11:00,50.0,23.0,-100.00,East,94,5.0,-999.0,34,0.00,,,-99.99,,2013-03-09 20:11:00,
2013-03-09 15:52:00,52.0,20.0,-100.00,SW,230,3.0,-999.0,28,0.00,,,-99.99,,2013-03-09 20:52:00,
2013-03-09 16:02:00,52.0,20.0,-100.00,SW,230,3.0,-999.0,28,0.00,,,-99.99,,2013-03-09 21:02:00,
2013-03-09 16:12:00,52.0,20.0,-100.00,SW,230,3.0,-999.0,28,0.00,,,-99.99,,2013-03-09 21:12:00,
2013-03-09 16:52:00,49.0,20.0,-100.00,SSE,158,5.0,-999.0,31,0.00,,,-99.99,,2013-03-09 21:52:00,
2013-03-09 17:01:00,49.0,20.0,-100.00,SSE,158,5.0,-999.0,31,0.00,,,-99.99,,2013-03-09 22:01:00,
2013-03-09 17:11:00,49.0,20.0,-100.00,SSE,158,5.0,-999.0,31,0.00,,,-99.99,,2013-03-09 22:11:00,
2013-03-09 17:52:00,48.0,26.0,-100.00,SSE,148,4.0,-999.0,42,0.00,,,-99.99,,2013-03-09 22:52:00,
2013-03-09 18:01:00,48.0,26.0,-100.00,SSE,148,4.0,-999.0,42,0.00,,,-99.99,,2013-03-09 23:01:00,
2013-03-09 18:11:00,48.0,26.0,-100.00,SSE,148,4.0,-999.0,42,0.00,,,-99.99,,2013-03-09 23:11:00,
2013-03-09 18:52:00,45.0,27.0,-100.00,SE,125,7.0,-999.0,49,0.00,,,-99.99,,2013-03-09 23:52:00,
2013-03-09 19:02:00,45.0,27.0,-100.00,SE,125,7.0,-999.0,49,0.00,,,-99.99,,2013-03-10 00:02:00,
2013-03-09 19:12:00,45.0,27.0,-100.00,SE,125,7.0,-999.0,49,0.00,,,-99.99,,2013-03-10 00:12:00,
2013-03-09 19:52:00,44.0,30.0,-100.00,SE,128,3.0,-999.0,57,0.00,,,0.00,,2013-03-10 00:52:00,
2013-03-09 20:01:00,44.0,30.0,-100.00,SE,128,3.0,-999.0,57,0.00,,,0.00,,2013-03-10 01:01:00,
2013-03-09 20:11:00,44.0,30.0,-100.00,SE,128,3.0,-999.0,57,0.00,,,0.00,,2013-03-10 01:11:00,
2013-03-09 20:52:00,43.0,31.0,-100.00,SSE,150,3.0,-999.0,62,0.00,,,-99.99,,2013-03-10 01:52:00,
2013-03-09 21:01:00,43.0,31.0,-100.00,SSE,150,3.0,-999.0,62,0.00,,,-99.99,,2013-03-10 02:01:00,
2013-03-09 21:11:00,43.0,31.0,-100.00,SSE,150,3.0,-999.0,62,0.00,,,-99.99,,2013-03-10 02:11:00,
2013-03-09 21:52:00,44.0,26.0,-100.00,SE,127,4.0,-999.0,49,0.00,,,0.00,,2013-03-10 02:52:00,
2013-03-09 22:02:00,44.0,26.0,-100.00,SE,127,4.0,-999.0,49,0.00,,,0.00,,2013-03-10 03:02:00,
2013-03-09 22:12:00,44.0,26.0,-100.00,SE,127,4.0,-999.0,49,0.00,,,0.00,,2013-03-10 03:12:00,
2013-03-09 23:01:00,42.0,27.0,-100.00,SSE,165,2.0,-999.0,54,0.00,,,0.00,,2013-03-10 04:01:00,
2013-03-09 23:11:00,42.0,27.0,-100.00,SSE,165,2.0,-999.0,54,0.00,,,0.00,,2013-03-10 04:11:00,
2013-03-09 23:52:00,39.0,28.0,-100.00,SE,128,1.0,-999.0,64,0.00,,,0.00,,2013-03-10 04:52:00,